Ely Municipal Airport Ely US
ICAO: KELO
IATA: ELO
Category: Medium
Scheduled Services: No

Elevation: 1456 ft
TransAlt. 18000 ft.

Airport Communications:
AWOS 3:132.025
PRINCETON RDO:109.6
CTAF/UNICOM:122.8

KELO Zoom In..

Runways:

(A) RW 12 length 5596 ft width 100 ft
---- / hdg 120

(B) RW 30 length 5596 ft width 100 ft
---- / hdg 300

Location; KELO
Day. 15 / Time. 22.35 Zulu
* Altimeter: 29.93
* Temperature: 22° c. 71.6°f.
* Wind from: 300° Speed 09 kn.
Dewpoint: 13° c.
Visibility: 10 Statute Miles.
Clouds: Clear (automated report).

KELO 152235Z AUTO 30009KT 10SM CLR 22/13 A2993 RMK AO2


Wind From 300°
Speed 09 kn.

 
 
jpsmedia.com for Web Design worldairports.se 2018   terms of use